createdAt,value
2023-01-30T00:00:05.951Z,90.04
2023-01-30T00:02:53.419Z,90.00
2023-01-30T00:05:20.422Z,89.92
2023-01-30T00:07:47.722Z,89.91
2023-01-30T00:10:15.487Z,89.85
2023-01-30T00:12:42.636Z,89.86
2023-01-30T00:15:11.033Z,89.86
2023-01-30T00:17:38.949Z,89.90
2023-01-30T00:20:06.381Z,89.81
2023-01-30T00:22:33.177Z,89.79
2023-01-30T00:25:00.308Z,89.80
2023-01-30T00:27:27.273Z,89.81
2023-01-30T00:30:02.841Z,89.75
2023-01-30T00:32:30.822Z,89.83
2023-01-30T00:34:57.723Z,89.88
2023-01-30T00:37:24.485Z,89.82
2023-01-30T00:39:51.466Z,89.88
2023-01-30T00:42:36.597Z,90.03
2023-01-30T00:45:21.545Z,90.07
2023-01-30T00:47:49.482Z,90.18
2023-01-30T00:50:16.564Z,90.23
2023-01-30T00:52:43.650Z,90.16
2023-01-30T00:55:11.889Z,90.13
2023-01-30T00:57:38.828Z,90.19
2023-01-30T01:00:09.161Z,90.25
2023-01-30T01:02:36.631Z,90.27
2023-01-30T01:05:03.480Z,90.08
2023-01-30T01:07:31.317Z,90.25
2023-01-30T01:09:59.277Z,90.15
2023-01-30T01:12:26.095Z,90.10
2023-01-30T01:14:52.988Z,90.19
2023-01-30T01:17:19.953Z,89.96
2023-01-30T01:19:46.711Z,89.97
2023-01-30T01:22:13.524Z,89.93
2023-01-30T01:24:40.423Z,89.90
2023-01-30T01:27:08.368Z,89.76
2023-01-30T01:29:35.576Z,89.77
2023-01-30T01:32:02.602Z,89.73
2023-01-30T01:34:29.609Z,89.63
2023-01-30T01:36:56.527Z,89.75
2023-01-30T01:39:23.862Z,89.87
2023-01-30T01:41:50.647Z,89.68
2023-01-30T01:44:18.207Z,89.59
2023-01-30T01:46:49.714Z,89.57
2023-01-30T01:49:22.084Z,89.54
2023-01-30T01:51:54.863Z,89.63
2023-01-30T01:54:30.331Z,89.59
2023-01-30T01:56:57.219Z,89.50
2023-01-30T01:59:30.046Z,89.44
2023-01-30T02:02:02.201Z,89.36
2023-01-30T02:04:51.035Z,89.42
2023-01-30T02:07:21.847Z,89.40
2023-01-30T02:09:48.805Z,89.22
2023-01-30T02:12:17.378Z,89.26
2023-01-30T02:14:45.591Z,89.02
2023-01-30T02:17:13.617Z,88.96
2023-01-30T02:19:52.327Z,89.07
2023-01-30T02:22:32.970Z,88.87
2023-01-30T02:25:44.731Z,88.94
2023-01-30T02:28:38.497Z,88.83
2023-01-30T02:31:16.716Z,88.85
2023-01-30T02:33:54.894Z,88.65
2023-01-30T02:36:28.812Z,88.71
2023-01-30T02:39:03.728Z,88.60
2023-01-30T02:41:39.078Z,88.25
2023-01-30T02:44:12.594Z,88.23
2023-01-30T02:46:52.795Z,88.09
2023-01-30T02:49:25.151Z,87.64
2023-01-30T02:51:53.929Z,87.57
2023-01-30T02:54:21.047Z,87.54
2023-01-30T02:56:52.424Z,87.46
2023-01-30T02:59:25.189Z,87.35
2023-01-30T03:02:40.227Z,87.14
2023-01-30T03:05:23.750Z,86.97
2023-01-30T03:07:57.065Z,87.09
2023-01-30T03:10:38.029Z,86.94
2023-01-30T03:13:12.772Z,86.58
2023-01-30T03:15:46.134Z,86.67
2023-01-30T03:18:13.073Z,86.67
2023-01-30T03:20:42.391Z,86.79
2023-01-30T03:23:09.257Z,86.50
2023-01-30T03:25:42.628Z,86.60
2023-01-30T03:28:12.070Z,86.63
2023-01-30T03:30:39.459Z,86.80
2023-01-30T03:33:08.925Z,86.82
2023-01-30T03:35:37.082Z,86.99
2023-01-30T03:38:04.113Z,87.21
2023-01-30T03:40:31.479Z,87.48
2023-01-30T03:42:58.382Z,87.75
2023-01-30T03:45:25.968Z,87.75
2023-01-30T03:47:53.162Z,88.00
2023-01-30T03:50:20.574Z,88.14
2023-01-30T03:52:47.853Z,88.38
2023-01-30T03:55:17.019Z,88.37
2023-01-30T03:57:44.513Z,88.63
2023-01-30T04:00:13.904Z,88.67
2023-01-30T04:02:43.594Z,88.61
2023-01-30T04:05:12.442Z,88.45
2023-01-30T04:07:41.315Z,88.59
2023-01-30T04:10:10.608Z,88.73
2023-01-30T04:12:37.543Z,88.56
2023-01-30T04:15:04.680Z,88.63
2023-01-30T04:17:47.946Z,88.54
2023-01-30T04:20:18.188Z,88.29
2023-01-30T04:22:48.946Z,88.38
2023-01-30T04:25:17.007Z,88.33
2023-01-30T04:27:44.472Z,88.28
2023-01-30T04:30:15.501Z,88.36
2023-01-30T04:32:42.554Z,88.41
2023-01-30T04:35:12.317Z,88.14
2023-01-30T04:37:39.757Z,88.12
2023-01-30T04:40:08.743Z,88.08
2023-01-30T04:42:35.926Z,87.96
2023-01-30T04:45:25.496Z,87.84
2023-01-30T04:47:52.460Z,87.63
2023-01-30T04:50:19.838Z,87.62
2023-01-30T04:52:46.866Z,87.44
2023-01-30T04:55:14.820Z,87.28
2023-01-30T04:57:41.726Z,87.19
2023-01-30T05:00:12.717Z,86.96
2023-01-30T05:02:43.223Z,87.03
2023-01-30T05:05:11.082Z,86.78
2023-01-30T05:07:38.093Z,86.83
2023-01-30T05:10:05.784Z,86.69
2023-01-30T05:12:35.647Z,86.52
2023-01-30T05:15:02.671Z,86.46
2023-01-30T05:17:29.551Z,86.40
2023-01-30T05:19:56.350Z,86.37
2023-01-30T05:22:23.242Z,86.64
2023-01-30T05:24:50.039Z,86.56
2023-01-30T05:27:17.030Z,86.56
2023-01-30T05:29:44.190Z,86.60
2023-01-30T05:32:13.708Z,86.62
2023-01-30T05:34:40.742Z,86.34
2023-01-30T05:37:07.982Z,86.59
2023-01-30T05:39:35.527Z,86.58
2023-01-30T05:42:02.435Z,86.50
2023-01-30T05:44:29.457Z,86.44
2023-01-30T05:46:56.308Z,86.25
2023-01-30T05:49:23.285Z,86.21
2023-01-30T05:51:51.560Z,86.09
2023-01-30T05:54:18.729Z,85.88
2023-01-30T05:56:52.504Z,86.05
2023-01-30T05:59:19.685Z,85.92
2023-01-30T06:01:46.612Z,85.85
2023-01-30T06:04:13.445Z,85.94
2023-01-30T06:06:40.201Z,85.81
2023-01-30T06:09:07.028Z,85.80
2023-01-30T06:11:33.797Z,85.73
2023-01-30T06:14:00.578Z,85.76
2023-01-30T06:16:27.855Z,85.54
2023-01-30T06:18:54.675Z,85.35
2023-01-30T06:21:21.550Z,85.62
2023-01-30T06:23:48.768Z,85.36
2023-01-30T06:26:15.748Z,85.42
2023-01-30T06:28:42.895Z,85.20
2023-01-30T06:31:10.345Z,85.04
2023-01-30T06:33:37.895Z,84.96
2023-01-30T06:36:05.070Z,85.09
2023-01-30T06:38:32.200Z,84.99
2023-01-30T06:40:59.092Z,84.72
2023-01-30T06:43:25.894Z,84.56
2023-01-30T06:45:53.359Z,84.44
2023-01-30T06:48:21.012Z,83.89
2023-01-30T06:50:49.094Z,83.94
2023-01-30T06:53:16.165Z,83.91
2023-01-30T06:55:43.176Z,83.79
2023-01-30T06:58:12.076Z,83.49
2023-01-30T07:00:40.998Z,83.66
2023-01-30T07:03:11.183Z,83.45
2023-01-30T07:05:40.014Z,83.13
2023-01-30T07:08:06.981Z,83.10
2023-01-30T07:10:34.519Z,82.67
2023-01-30T07:13:01.555Z,82.82
2023-01-30T07:15:28.562Z,82.57
2023-01-30T07:17:55.715Z,82.32
2023-01-30T07:20:22.976Z,82.18
2023-01-30T07:22:53.616Z,82.68
2023-01-30T07:25:20.968Z,83.04
2023-01-30T07:27:53.086Z,82.99
2023-01-30T07:30:20.413Z,82.75
2023-01-30T07:32:50.563Z,82.82
2023-01-30T07:35:17.750Z,83.09
2023-01-30T07:37:47.999Z,83.24
2023-01-30T07:40:16.841Z,83.29
2023-01-30T07:42:43.926Z,83.29
2023-01-30T07:45:12.749Z,83.34
2023-01-30T07:47:39.730Z,83.66
2023-01-30T07:50:08.564Z,83.84
2023-01-30T07:52:35.382Z,83.99
2023-01-30T07:55:02.311Z,84.41
2023-01-30T07:57:29.560Z,84.76
2023-01-30T07:59:56.603Z,84.98
2023-01-30T08:02:23.509Z,84.97
2023-01-30T08:04:50.457Z,85.22
2023-01-30T08:07:17.403Z,85.47
2023-01-30T08:09:44.783Z,85.60
2023-01-30T08:12:11.844Z,85.73
2023-01-30T08:14:38.628Z,86.16
2023-01-30T08:17:05.829Z,86.35
2023-01-30T08:19:32.571Z,86.42
2023-01-30T08:22:01.524Z,86.63
2023-01-30T08:24:29.142Z,86.72
2023-01-30T08:26:56.124Z,86.76
2023-01-30T08:29:22.990Z,86.89
2023-01-30T08:31:50.191Z,86.81
2023-01-30T08:34:17.386Z,87.03
2023-01-30T08:36:46.713Z,87.01
2023-01-30T08:39:14.243Z,87.32
2023-01-30T08:41:43.139Z,87.32
2023-01-30T08:44:10.055Z,87.33
2023-01-30T08:46:40.109Z,87.22
2023-01-30T08:49:07.503Z,87.41
2023-01-30T08:51:34.935Z,87.64
2023-01-30T08:54:02.111Z,87.65
2023-01-30T08:56:29.297Z,87.72
2023-01-30T08:58:56.250Z,87.68
2023-01-30T09:01:25.586Z,87.83
2023-01-30T09:03:52.877Z,88.10
2023-01-30T09:06:19.753Z,88.06
2023-01-30T09:08:46.955Z,88.31
2023-01-30T09:11:13.925Z,88.26
2023-01-30T09:13:43.727Z,88.43
2023-01-30T09:16:11.774Z,88.35
2023-01-30T09:18:41.581Z,88.41
2023-01-30T09:21:09.609Z,88.39
2023-01-30T09:23:37.075Z,88.51
2023-01-30T09:26:04.985Z,88.42
2023-01-30T09:28:32.306Z,88.62
2023-01-30T09:31:02.049Z,88.66
2023-01-30T09:33:29.671Z,88.64
2023-01-30T09:36:04.494Z,88.47
2023-01-30T09:38:31.244Z,88.73
2023-01-30T09:41:24.619Z,88.63
2023-01-30T09:44:05.048Z,88.40
2023-01-30T09:46:43.824Z,88.58
2023-01-30T09:49:23.181Z,88.68
2023-01-30T09:52:04.759Z,88.70
2023-01-30T09:54:33.398Z,88.78
2023-01-30T09:57:21.367Z,88.71
2023-01-30T09:59:59.612Z,88.97
2023-01-30T10:02:40.065Z,88.86
2023-01-30T10:05:09.500Z,88.99
2023-01-30T10:07:48.286Z,89.07
2023-01-30T10:10:22.617Z,88.77
2023-01-30T10:13:03.558Z,88.90
2023-01-30T10:15:41.815Z,89.08
2023-01-30T10:18:36.231Z,89.12
2023-01-30T10:21:14.684Z,89.37
2023-01-30T10:24:06.723Z,89.42
2023-01-30T10:26:44.693Z,89.32
2023-01-30T10:29:37.677Z,89.48
2023-01-30T10:32:12.681Z,89.46
2023-01-30T10:34:42.921Z,89.78
2023-01-30T10:37:14.477Z,89.76
2023-01-30T10:39:55.410Z,89.99
2023-01-30T10:42:29.226Z,90.19
2023-01-30T10:45:01.921Z,90.10
2023-01-30T10:47:47.010Z,90.07
2023-01-30T10:50:19.522Z,90.16
2023-01-30T10:52:52.632Z,90.04
2023-01-30T10:55:38.271Z,90.25
2023-01-30T10:58:16.609Z,90.50
2023-01-30T11:00:48.963Z,90.50
2023-01-30T11:03:34.502Z,90.75
2023-01-30T11:06:04.512Z,90.75
2023-01-30T11:08:34.337Z,90.78
2023-01-30T11:11:02.167Z,90.68
2023-01-30T11:13:33.550Z,90.81
2023-01-30T11:16:05.322Z,90.95
2023-01-30T11:19:17.838Z,91.13
2023-01-30T11:21:34.950Z,91.03
2023-01-30T11:24:18.115Z,91.10
2023-01-30T11:26:48.196Z,91.30
2023-01-30T11:29:27.311Z,91.13
2023-01-30T11:31:55.002Z,91.23
2023-01-30T11:34:24.668Z,91.29
2023-01-30T11:36:52.698Z,91.16
2023-01-30T11:39:31.048Z,91.15
2023-01-30T11:42:05.090Z,91.16
2023-01-30T11:44:34.072Z,91.08
2023-01-30T11:47:04.899Z,91.02
2023-01-30T11:49:47.807Z,90.90
2023-01-30T11:52:30.823Z,90.91
2023-01-30T11:55:05.470Z,90.87
2023-01-30T11:57:39.970Z,90.82
2023-01-30T12:00:16.255Z,90.73
2023-01-30T12:02:41.855Z,90.67
2023-01-30T12:05:34.895Z,90.62
2023-01-30T12:08:39.393Z,90.60
2023-01-30T12:11:28.568Z,90.74
2023-01-30T12:14:22.402Z,90.80
2023-01-30T12:17:05.886Z,90.72
2023-01-30T12:19:46.410Z,90.79
2023-01-30T12:22:24.239Z,90.71
2023-01-30T12:25:00.653Z,90.87
2023-01-30T12:27:47.636Z,90.99
2023-01-30T12:30:27.635Z,91.08
2023-01-30T12:35:53.462Z,91.12
2023-01-30T12:38:33.353Z,91.05
2023-01-30T12:41:35.179Z,91.00
2023-01-30T12:44:38.571Z,91.04
2023-01-30T12:47:20.994Z,91.09
2023-01-30T12:50:03.998Z,91.07
2023-01-30T12:52:43.044Z,91.05
2023-01-30T12:55:23.922Z,91.08
2023-01-30T12:57:58.199Z,91.13
2023-01-30T13:00:41.698Z,91.09
2023-01-30T13:03:24.703Z,91.23
2023-01-30T13:05:58.290Z,91.27
2023-01-30T13:08:38.696Z,91.35
2023-01-30T13:11:20.789Z,91.32
2023-01-30T13:13:53.152Z,91.39
2023-01-30T13:16:28.695Z,91.55
2023-01-30T13:19:03.417Z,91.56
2023-01-30T13:21:37.893Z,91.48
2023-01-30T13:24:21.215Z,91.46
2023-01-30T13:26:49.851Z,91.58
2023-01-30T13:29:22.248Z,91.59
2023-01-30T13:31:55.297Z,91.64
2023-01-30T13:34:27.990Z,91.70
2023-01-30T13:36:59.861Z,91.71
2023-01-30T13:39:36.834Z,91.91
2023-01-30T13:42:14.670Z,91.91
2023-01-30T13:44:45.497Z,92.00
2023-01-30T13:47:24.132Z,91.99
2023-01-30T13:50:00.813Z,92.13
2023-01-30T13:52:30.147Z,92.18
2023-01-30T13:55:06.595Z,92.34
2023-01-30T13:57:49.034Z,92.31
2023-01-30T14:00:37.327Z,92.38
2023-01-30T14:03:27.959Z,92.28
2023-01-30T14:06:15.626Z,92.36
2023-01-30T14:08:52.563Z,92.33
2023-01-30T14:11:41.539Z,92.38
2023-01-30T14:14:26.484Z,92.58
2023-01-30T14:16:56.473Z,92.47
2023-01-30T14:19:37.075Z,92.34
2023-01-30T14:22:17.063Z,92.46
2023-01-30T14:24:44.161Z,92.38
2023-01-30T14:30:39.384Z,92.30
2023-01-30T14:33:31.975Z,92.51
2023-01-30T14:36:31.729Z,92.43
2023-01-30T14:39:37.641Z,92.41
2023-01-30T14:42:24.769Z,92.57
2023-01-30T14:45:01.288Z,92.50
2023-01-30T14:47:36.751Z,92.51
2023-01-30T14:50:23.830Z,92.66
2023-01-30T14:52:55.893Z,92.61
2023-01-30T14:55:29.630Z,92.65
2023-01-30T14:58:03.736Z,92.69
2023-01-30T15:00:33.501Z,92.75
2023-01-30T15:03:04.045Z,92.70
2023-01-30T15:05:44.036Z,92.79
2023-01-30T15:08:16.110Z,92.58
2023-01-30T15:10:56.337Z,92.95
2023-01-30T15:13:43.471Z,92.67
2023-01-30T15:16:28.427Z,92.73
2023-01-30T15:19:08.179Z,92.57
2023-01-30T15:21:55.132Z,92.70
2023-01-30T15:24:50.657Z,92.58
2023-01-30T15:27:23.607Z,92.52
2023-01-30T15:30:22.184Z,92.47
2023-01-30T15:32:49.634Z,92.52
2023-01-30T15:35:25.793Z,92.50
2023-01-30T15:37:54.835Z,92.47
2023-01-30T15:40:28.789Z,92.48
2023-01-30T15:43:08.322Z,92.58
2023-01-30T15:45:43.606Z,92.39
2023-01-30T15:48:25.064Z,92.33
2023-01-30T15:50:54.877Z,92.28
2023-01-30T15:53:28.703Z,92.27
2023-01-30T15:55:57.026Z,92.19
2023-01-30T15:58:25.573Z,92.17
2023-01-30T16:00:56.304Z,92.23
2023-01-30T16:03:25.434Z,92.19
2023-01-30T16:05:55.489Z,92.27
2023-01-30T16:08:26.032Z,92.34
2023-01-30T16:10:53.737Z,92.11
2023-01-30T16:13:22.601Z,92.18
2023-01-30T16:15:54.426Z,92.15
2023-01-30T16:18:28.529Z,92.10
2023-01-30T16:21:02.524Z,92.23
2023-01-30T16:23:35.072Z,92.16
2023-01-30T16:26:03.232Z,92.10
2023-01-30T16:28:32.298Z,92.08
2023-01-30T16:31:05.056Z,92.03
2023-01-30T16:33:36.475Z,92.06
2023-01-30T16:36:05.763Z,92.01
2023-01-30T16:38:45.563Z,92.05
2023-01-30T16:41:35.368Z,91.93
2023-01-30T16:44:21.051Z,91.86
2023-01-30T16:46:58.054Z,91.86
2023-01-30T16:49:27.188Z,91.99
2023-01-30T16:52:03.311Z,91.85
2023-01-30T16:54:32.493Z,91.74
2023-01-30T16:57:02.775Z,91.87
2023-01-30T16:59:34.097Z,91.73
2023-01-30T17:02:02.396Z,91.71
2023-01-30T17:04:33.389Z,91.73
2023-01-30T17:07:04.326Z,91.74
2023-01-30T17:09:48.583Z,91.54
2023-01-30T17:12:39.758Z,91.55
2023-01-30T17:15:34.720Z,91.45
2023-01-30T17:18:02.272Z,91.39
2023-01-30T17:20:37.549Z,91.36
2023-01-30T17:23:10.488Z,91.46
2023-01-30T17:25:40.862Z,91.27
2023-01-30T17:28:10.100Z,91.34
2023-01-30T17:30:37.194Z,91.22
2023-01-30T17:33:11.965Z,91.21
2023-01-30T17:35:40.672Z,91.26
2023-01-30T17:38:07.700Z,91.07
2023-01-30T17:40:39.033Z,90.99
2023-01-30T17:43:06.377Z,91.12
2023-01-30T17:45:33.360Z,90.94
2023-01-30T17:48:00.515Z,91.00
2023-01-30T17:50:28.628Z,90.88
2023-01-30T17:52:55.765Z,90.98
2023-01-30T17:55:22.688Z,90.84
2023-01-30T17:57:50.434Z,90.89
2023-01-30T18:00:21.898Z,90.88
2023-01-30T18:02:49.469Z,90.71
2023-01-30T18:05:17.315Z,90.79
2023-01-30T18:07:48.904Z,90.89
2023-01-30T18:10:20.468Z,90.76
2023-01-30T18:12:48.229Z,90.84
2023-01-30T18:15:17.752Z,90.84
2023-01-30T18:17:48.296Z,90.84
2023-01-30T18:20:18.779Z,90.74
2023-01-30T18:22:46.492Z,90.57
2023-01-30T18:25:14.491Z,90.60
2023-01-30T18:27:43.966Z,90.51
2023-01-30T18:30:15.858Z,90.42
2023-01-30T18:32:52.573Z,90.51
2023-01-30T18:35:20.785Z,90.33
2023-01-30T18:37:47.686Z,90.19
2023-01-30T18:40:16.010Z,90.22
2023-01-30T18:42:43.431Z,90.21
2023-01-30T18:45:11.279Z,90.22
2023-01-30T18:47:38.272Z,90.47
2023-01-30T18:50:05.807Z,90.31
2023-01-30T18:52:33.261Z,90.34
2023-01-30T18:55:00.053Z,90.23
2023-01-30T18:57:27.329Z,90.50
2023-01-30T18:59:54.472Z,90.27
2023-01-30T19:02:21.760Z,90.41
2023-01-30T19:04:48.909Z,90.33
2023-01-30T19:07:16.046Z,90.41
2023-01-30T19:09:43.385Z,90.48
2023-01-30T19:12:28.411Z,90.44
2023-01-30T19:14:55.500Z,90.44
2023-01-30T19:17:22.644Z,90.40
2023-01-30T19:19:49.781Z,90.39
2023-01-30T19:22:18.139Z,90.57
2023-01-30T19:24:45.463Z,90.53
2023-01-30T19:27:14.054Z,90.78
2023-01-30T19:29:41.804Z,90.87
2023-01-30T19:32:09.927Z,90.86
2023-01-30T19:34:38.665Z,90.88
2023-01-30T19:37:05.961Z,91.02
2023-01-30T19:39:33.304Z,91.00
2023-01-30T19:42:00.587Z,91.00
2023-01-30T19:44:27.503Z,91.08
2023-01-30T19:46:55.749Z,91.21
2023-01-30T19:49:22.793Z,91.26
2023-01-30T19:51:49.921Z,91.32
2023-01-30T19:54:18.885Z,91.31
2023-01-30T19:56:48.518Z,91.41
2023-01-30T19:59:16.665Z,91.36
2023-01-30T20:01:43.744Z,91.30
2023-01-30T20:04:10.835Z,91.34
2023-01-30T20:06:39.347Z,91.38
2023-01-30T20:09:09.417Z,91.36
2023-01-30T20:11:38.377Z,91.37
2023-01-30T20:14:07.213Z,91.49
2023-01-30T20:16:35.865Z,91.41
2023-01-30T20:19:04.895Z,91.38
2023-01-30T20:21:33.294Z,91.57
2023-01-30T20:24:01.066Z,91.50
2023-01-30T20:26:31.000Z,91.56
2023-01-30T20:28:58.775Z,91.62
2023-01-30T20:31:28.198Z,91.73
2023-01-30T20:33:57.690Z,91.79
2023-01-30T20:36:25.414Z,91.96
2023-01-30T20:38:53.368Z,92.11
2023-01-30T20:41:22.354Z,92.26
2023-01-30T20:43:52.000Z,92.24
2023-01-30T20:46:20.825Z,92.11
2023-01-30T20:48:48.088Z,92.18
2023-01-30T20:51:17.415Z,92.32
2023-01-30T20:53:50.226Z,92.14
2023-01-30T20:56:17.164Z,92.00
2023-01-30T20:58:44.765Z,92.09
2023-01-30T21:01:13.423Z,92.14
2023-01-30T21:03:41.398Z,92.10
2023-01-30T21:06:41.532Z,91.97
2023-01-30T21:09:05.950Z,92.02
2023-01-30T21:11:33.431Z,92.05
2023-01-30T21:14:00.813Z,91.99
2023-01-30T21:16:29.721Z,91.94
2023-01-30T21:19:01.413Z,91.97
2023-01-30T21:21:32.839Z,92.14
2023-01-30T21:24:01.498Z,91.97
2023-01-30T21:26:30.292Z,91.82
2023-01-30T21:28:57.332Z,92.04
2023-01-30T21:31:26.439Z,91.96
2023-01-30T21:33:53.909Z,92.01
2023-01-30T21:36:21.139Z,92.02
2023-01-30T21:39:05.685Z,91.92
2023-01-30T21:41:57.941Z,92.11
2023-01-30T21:44:28.193Z,92.17
2023-01-30T21:46:55.065Z,92.41
2023-01-30T21:49:22.203Z,92.30
2023-01-30T21:51:50.607Z,92.20
2023-01-30T21:54:18.933Z,92.14
2023-01-30T21:56:46.278Z,92.27
2023-01-30T21:59:15.958Z,92.34
2023-01-30T22:01:43.725Z,92.34
2023-01-30T22:04:14.015Z,92.31
2023-01-30T22:06:41.979Z,92.44
2023-01-30T22:09:09.736Z,92.41
2023-01-30T22:11:38.758Z,92.40
2023-01-30T22:14:06.054Z,92.38
2023-01-30T22:16:34.067Z,92.42
2023-01-30T22:19:03.782Z,92.49
2023-01-30T22:21:34.832Z,92.39
2023-01-30T22:24:02.384Z,92.34
2023-01-30T22:26:29.388Z,92.41
2023-01-30T22:28:58.145Z,92.43
2023-01-30T22:31:26.353Z,92.40
2023-01-30T22:33:55.880Z,92.33
2023-01-30T22:36:24.776Z,92.44
2023-01-30T22:38:52.141Z,92.41
2023-01-30T22:41:20.803Z,92.40
2023-01-30T22:43:48.876Z,92.32
2023-01-30T22:46:16.940Z,92.25
2023-01-30T22:48:44.698Z,92.28
2023-01-30T22:51:15.053Z,92.13
2023-01-30T22:53:43.712Z,92.27
2023-01-30T22:56:12.725Z,92.07
2023-01-30T22:58:40.277Z,92.08
2023-01-30T23:01:09.773Z,92.06
2023-01-30T23:03:37.267Z,92.02
2023-01-30T23:06:05.654Z,92.04
2023-01-30T23:08:34.311Z,91.96
2023-01-30T23:11:06.474Z,91.94
2023-01-30T23:13:33.365Z,91.86
2023-01-30T23:16:03.570Z,91.89
2023-01-30T23:18:48.602Z,91.96
2023-01-30T23:21:16.790Z,91.84
2023-01-30T23:23:45.323Z,91.92
2023-01-30T23:26:13.109Z,91.92
2023-01-30T23:28:40.713Z,91.83
2023-01-30T23:31:13.143Z,91.93
2023-01-30T23:33:40.553Z,92.19
2023-01-30T23:36:10.257Z,92.05
2023-01-30T23:38:37.789Z,92.06
2023-01-30T23:41:11.747Z,92.01
2023-01-30T23:43:39.208Z,92.06
2023-01-30T23:46:19.442Z,92.12
2023-01-30T23:48:48.684Z,92.03
2023-01-30T23:51:17.496Z,92.13
2023-01-30T23:53:45.288Z,92.00
2023-01-30T23:56:12.760Z,92.11
2023-01-30T23:58:40.263Z,91.98
